Time;durP1;ratioP1;P1;durP2;ratioP2;P2;SDS_P1;SDS_P2;PMS_P1;PMS_P2;Temp;Humidity;BMP_temperature;BMP_pressure;BME280_temperature;BME280_humidity;BME280_pressure;Samples;Min_cycle;Max_cycle;Signal;HPM_P1;HPM_P2
2021/05/28 00:01:13;;;;;;;;;;;;;;;7.67;70.38;93174.09;2075137;69;20048;-80
2021/05/28 00:03:39;;;;;;;;;;;;;;;7.64;70.60;93176.00;2075064;69;20439;-80
2021/05/28 00:06:04;;;;;;;;;;;;;;;7.67;70.78;93174.09;2075378;69;20044;-79
2021/05/28 00:08:30;;;;;;;;;;;;;;;7.66;71.20;93181.03;2075185;69;20423;-82
2021/05/28 00:10:55;;;;;;;;;;;;;;;7.59;70.99;93171.41;2075130;69;20054;-79
2021/05/28 00:13:21;;;;;;;;;;;;;;;7.59;70.36;93177.75;2075280;69;20117;-80
2021/05/28 00:15:47;;;;;;;;;;;;;;;7.24;72.60;93174.28;2075317;69;20656;-79
2021/05/28 00:18:12;;;;;;;;;;;;;;;7.43;72.02;93181.34;2075161;69;20048;-80
2021/05/28 00:20:38;;;;;;;;;;;;;;;7.39;71.27;93179.69;2071448;69;20160;-78
2021/05/28 00:23:03;;;;;;;;;;;;;;;7.43;71.14;93178.53;2075020;69;20075;-81
2021/05/28 00:25:29;;;;;;;;;;;;;;;7.27;71.54;93183.56;2075062;69;20059;-80
2021/05/28 00:27:55;;;;;;;;;;;;;;;7.41;71.02;93186.75;2075015;69;20091;-80
2021/05/28 00:30:20;;;;;;;;;;;;;;;7.36;72.29;93182.91;2075114;69;20155;-80
2021/05/28 00:32:46;;;;;;;;;;;;;;;7.30;71.69;93183.16;2075338;69;20048;-80
2021/05/28 00:35:11;;;;;;;;;;;;;;;7.37;71.29;93187.16;2075138;69;20142;-79
2021/05/28 00:37:38;;;;;;;;;;;;;;;7.27;71.82;93192.69;2075306;69;20519;-78
2021/05/28 00:40:04;;;;;;;;;;;;;;;7.26;72.33;93193.28;2074942;69;20076;-78
2021/05/28 00:42:29;;;;;;;;;;;;;;;7.24;72.29;93195.91;2075765;69;20091;-79
2021/05/28 00:44:55;;;;;;;;;;;;;;;6.87;74.80;93196.50;2075793;69;20048;-81
2021/05/28 00:47:20;;;;;;;;;;;;;;;7.07;72.62;93205.06;2075761;69;20044;-79
2021/05/28 00:49:46;;;;;;;;;;;;;;;7.01;72.30;93194.13;2075726;69;20052;-79
2021/05/28 00:52:12;;;;;;;;;;;;;;;7.06;72.84;93195.94;2075581;69;20049;-80
2021/05/28 00:54:38;;;;;;;;;;;;;;;7.18;72.22;93198.22;2075654;69;20060;-79
2021/05/28 00:57:04;;;;;;;;;;;;;;;7.16;72.00;93198.06;2075687;69;20172;-78
2021/05/28 00:59:29;;;;;;;;;;;;;;;7.15;71.53;93205.75;2075785;69;20052;-80
2021/05/28 01:01:55;;;;;;;;;;;;;;;6.97;73.17;93204.25;2075539;69;20116;-79
2021/05/28 01:04:20;;;;;;;;;;;;;;;6.46;76.52;93211.22;2075568;69;20103;-79
2021/05/28 01:06:52;;;;;;;;;;;;;;;6.77;74.87;93206.13;2075586;69;20131;-79
2021/05/28 01:09:17;;;;;;;;;;;;;;;6.98;73.17;93195.28;2075861;69;20163;-78
2021/05/28 01:11:45;;;;;;;;;;;;;;;6.87;72.90;93193.72;2075812;69;20565;-78
2021/05/28 01:14:11;;;;;;;;;;;;;;;6.85;73.29;93196.31;2075788;69;20143;-79
2021/05/28 01:16:37;;;;;;;;;;;;;;;6.83;73.46;93190.56;2075784;69;20056;-79
2021/05/28 01:19:03;;;;;;;;;;;;;;;6.91;72.18;93196.06;2072114;69;20075;-80
2021/05/28 01:21:28;;;;;;;;;;;;;;;6.87;73.82;93193.72;2075588;69;20084;-79
2021/05/28 01:23:54;;;;;;;;;;;;;;;6.93;72.88;93189.94;2072127;69;20129;-80
2021/05/28 01:26:20;;;;;;;;;;;;;;;6.80;73.89;93188.19;2071975;69;20068;-79
2021/05/28 01:28:45;;;;;;;;;;;;;;;6.77;73.00;93189.31;2075754;69;20117;-81
2021/05/28 01:31:11;;;;;;;;;;;;;;;6.86;73.98;93192.22;2075618;69;20040;-81
2021/05/28 01:33:41;;;;;;;;;;;;;;;6.76;73.17;93196.25;2075412;69;20044;-80
2021/05/28 01:36:07;;;;;;;;;;;;;;;6.53;74.35;93197.19;2075629;69;20129;-79
2021/05/28 01:38:32;;;;;;;;;;;;;;;6.77;73.00;93200.50;2071928;69;20487;-80
2021/05/28 01:40:58;;;;;;;;;;;;;;;6.77;72.85;93201.25;2075431;69;20056;-79
2021/05/28 01:43:23;;;;;;;;;;;;;;;6.78;72.98;93197.16;2075661;69;20060;-80
2021/05/28 01:45:49;;;;;;;;;;;;;;;6.87;72.84;93192.94;2075735;69;20064;-82
2021/05/28 01:48:14;;;;;;;;;;;;;;;6.71;72.77;93195.16;2072079;69;20044;-81
2021/05/28 01:50:43;;;;;;;;;;;;;;;6.62;74.18;93196.53;2075860;69;20060;-82
2021/05/28 01:53:13;;;;;;;;;;;;;;;6.49;74.18;93198.91;2075474;69;20048;-80
2021/05/28 01:55:38;;;;;;;;;;;;;;;6.50;74.01;93192.00;2075463;69;20419;-79
2021/05/28 01:58:07;;;;;;;;;;;;;;;6.70;73.30;93192.94;2075703;69;20048;-80
2021/05/28 02:00:33;;;;;;;;;;;;;;;6.69;72.42;93199.84;2075753;69;20045;-82
2021/05/28 02:02:59;;;;;;;;;;;;;;;6.75;72.20;93192.69;2075607;69;20117;-82
2021/05/28 02:05:24;;;;;;;;;;;;;;;6.68;73.12;93196.31;2075647;69;20109;-80
2021/05/28 02:07:49;;;;;;;;;;;;;;;6.62;73.07;93187.41;2075736;69;20055;-82
2021/05/28 02:10:15;;;;;;;;;;;;;;;6.48;73.07;93184.19;2075531;69;20496;-83
2021/05/28 02:12:40;;;;;;;;;;;;;;;6.74;72.74;93190.50;2075752;69;20143;-81
2021/05/28 02:15:06;;;;;;;;;;;;;;;6.39;74.45;93181.28;2075657;69;20121;-81
2021/05/28 02:17:31;;;;;;;;;;;;;;;6.36;73.27;93186.69;2072016;69;20129;-80
2021/05/28 02:19:57;;;;;;;;;;;;;;;6.44;73.83;93180.31;2075608;69;20147;-80
2021/05/28 02:22:22;;;;;;;;;;;;;;;6.43;73.13;93178.84;2075616;69;20052;-82
2021/05/28 02:24:48;;;;;;;;;;;;;;;6.45;73.44;93185.31;2075556;69;20055;-82
2021/05/28 02:27:13;;;;;;;;;;;;;;;6.29;73.54;93183.97;2075603;69;20075;-82
2021/05/28 02:29:39;;;;;;;;;;;;;;;6.17;74.39;93189.28;2075708;69;20488;-80
2021/05/28 02:32:04;;;;;;;;;;;;;;;6.30;73.27;93189.00;2075674;69;20481;-82
2021/05/28 02:34:30;;;;;;;;;;;;;;;6.25;74.05;93189.97;2075864;69;20056;-80
2021/05/28 02:36:55;;;;;;;;;;;;;;;6.29;73.96;93193.09;2072043;69;20059;-80
2021/05/28 02:39:21;;;;;;;;;;;;;;;6.07;74.40;93194.03;2075795;69;20095;-82
2021/05/28 02:41:46;;;;;;;;;;;;;;;5.84;75.17;93197.69;2071695;69;20121;-81
2021/05/28 02:44:12;;;;;;;;;;;;;;;6.10;74.56;93193.63;2075552;69;20121;-82
2021/05/28 02:46:37;;;;;;;;;;;;;;;6.12;74.47;93207.03;2075555;69;20476;-80
2021/05/28 02:49:03;;;;;;;;;;;;;;;6.05;74.01;93191.06;2075574;69;20518;-82
2021/05/28 02:51:28;;;;;;;;;;;;;;;6.20;73.63;93193.75;2075587;69;20051;-80
2021/05/28 02:53:54;;;;;;;;;;;;;;;6.18;73.85;93196.34;2075517;69;20543;-83
2021/05/28 02:56:19;;;;;;;;;;;;;;;6.06;74.27;93200.94;2075391;69;20052;-80
2021/05/28 02:58:45;;;;;;;;;;;;;;;6.15;74.34;93202.34;2075650;69;20048;-82
2021/05/28 03:01:10;;;;;;;;;;;;;;;6.13;73.80;93200.13;2075618;69;20474;-83
2021/05/28 03:03:36;;;;;;;;;;;;;;;6.21;73.74;93197.28;2075489;69;20057;-83
2021/05/28 03:06:01;;;;;;;;;;;;;;;6.07;73.40;93203.16;2075501;69;20047;-83
2021/05/28 03:08:27;;;;;;;;;;;;;;;6.05;73.31;93205.78;2075501;69;20044;-83
2021/05/28 03:10:53;;;;;;;;;;;;;;;5.98;74.14;93203.03;2075359;69;20067;-82
2021/05/28 03:13:18;;;;;;;;;;;;;;;5.97;73.97;93196.69;2075524;69;20071;-82
2021/05/28 03:15:44;;;;;;;;;;;;;;;6.03;73.36;93213.97;2075504;69;20488;-82
2021/05/28 03:18:17;;;;;;;;;;;;;;;5.96;74.58;93209.19;2075468;69;20059;-83
2021/05/28 03:20:47;;;;;;;;;;;;;;;5.82;74.57;93207.94;2075609;69;20054;-81
2021/05/28 03:23:13;;;;;;;;;;;;;;;5.85;74.75;93201.22;2075491;69;20055;-83
2021/05/28 03:25:39;;;;;;;;;;;;;;;5.89;74.46;93206.41;2071755;69;20088;-81
2021/05/28 03:28:05;;;;;;;;;;;;;;;5.88;74.94;93205.66;2075454;69;20406;-82
2021/05/28 03:30:30;;;;;;;;;;;;;;;5.91;74.58;93201.75;2075489;69;20489;-81
2021/05/28 03:32:56;;;;;;;;;;;;;;;5.92;74.97;93197.66;2075560;69;20147;-80
2021/05/28 03:35:21;;;;;;;;;;;;;;;5.94;73.83;93192.25;2075458;69;20047;-82
2021/05/28 03:37:47;;;;;;;;;;;;;;;6.05;73.94;93186.22;2075564;69;20051;-80
2021/05/28 03:40:12;;;;;;;;;;;;;;;6.00;74.41;93186.41;2075301;69;20143;-82
2021/05/28 03:42:38;;;;;;;;;;;;;;;5.83;74.52;93201.03;2075460;69;20482;-83
2021/05/28 03:45:05;;;;;;;;;;;;;;;5.90;74.59;93189.06;2075369;69;20076;-82
2021/05/28 03:47:31;;;;;;;;;;;;;;;5.94;74.12;93189.44;2075490;69;20052;-83
2021/05/28 03:49:56;;;;;;;;;;;;;;;5.79;74.96;93192.31;2075596;69;20447;-82
2021/05/28 03:52:22;;;;;;;;;;;;;;;5.61;76.67;93195.00;2075636;69;20044;-81
2021/05/28 03:54:47;;;;;;;;;;;;;;;5.60;75.93;93196.31;2075445;69;20148;-79
2021/05/28 03:57:13;;;;;;;;;;;;;;;5.66;75.22;93195.38;2075483;69;20049;-83
2021/05/28 03:59:38;;;;;;;;;;;;;;;5.79;75.18;93195.84;2075479;69;20036;-81
2021/05/28 04:02:04;;;;;;;;;;;;;;;5.74;75.59;93191.22;2075450;69;20579;-80
2021/05/28 04:04:31;;;;;;;;;;;;;;;5.77;74.56;93194.91;2075457;69;20492;-82
2021/05/28 04:06:57;;;;;;;;;;;;;;;5.75;75.16;93197.56;2075593;69;20433;-82
2021/05/28 04:09:22;;;;;;;;;;;;;;;5.70;74.97;93199.25;2075462;69;20509;-82
2021/05/28 04:11:48;;;;;;;;;;;;;;;5.82;75.05;93202.38;2075330;69;20132;-81
2021/05/28 04:14:14;;;;;;;;;;;;;;;5.87;74.28;93201.41;2075484;69;20126;-82
2021/05/28 04:16:40;;;;;;;;;;;;;;;5.88;74.12;93202.13;2075811;69;20047;-83
2021/05/28 04:19:05;;;;;;;;;;;;;;;5.85;74.94;93196.34;2076091;69;20048;-82
2021/05/28 04:21:31;;;;;;;;;;;;;;;5.84;74.37;93208.13;2076054;69;20422;-82
2021/05/28 04:23:56;;;;;;;;;;;;;;;5.86;74.27;93205.47;2076126;69;20041;-80
2021/05/28 04:26:22;;;;;;;;;;;;;;;5.92;74.23;93203.25;2072230;69;20068;-80
2021/05/28 04:28:47;;;;;;;;;;;;;;;6.02;73.95;93198.53;2075949;69;20044;-80
2021/05/28 04:31:13;;;;;;;;;;;;;;;6.01;73.99;93210.28;2075932;69;20139;-80
2021/05/28 04:33:38;;;;;;;;;;;;;;;6.03;74.07;93202.78;2076058;69;20111;-79
2021/05/28 04:36:04;;;;;;;;;;;;;;;6.10;73.49;93195.69;2075951;69;20096;-80
2021/05/28 04:38:30;;;;;;;;;;;;;;;6.03;74.29;93197.19;2072307;69;20137;-79
2021/05/28 04:40:55;;;;;;;;;;;;;;;5.89;74.90;93198.03;2075828;69;20052;-79
2021/05/28 04:43:21;;;;;;;;;;;;;;;5.94;74.83;93199.88;2076021;69;20051;-80
2021/05/28 04:45:46;;;;;;;;;;;;;;;5.93;74.58;93206.78;2075878;69;20055;-79
2021/05/28 04:48:12;;;;;;;;;;;;;;;5.84;75.41;93208.84;2075982;69;20128;-80
2021/05/28 04:50:38;;;;;;;;;;;;;;;6.10;73.73;93206.88;2075918;69;20048;-79
2021/05/28 04:53:04;;;;;;;;;;;;;;;6.07;74.23;93199.59;2075893;69;20549;-79
2021/05/28 04:55:30;;;;;;;;;;;;;;;6.10;74.06;93209.66;2075709;69;20488;-79
2021/05/28 04:57:55;;;;;;;;;;;;;;;6.05;74.60;93208.56;2075894;69;20152;-79
2021/05/28 05:00:22;;;;;;;;;;;;;;;6.07;74.16;93203.16;2072182;69;20136;-80
2021/05/28 05:02:47;;;;;;;;;;;;;;;6.01;74.58;93202.63;2075861;69;20514;-79
2021/05/28 05:05:13;;;;;;;;;;;;;;;6.31;73.25;93198.13;2075849;69;20056;-80
2021/05/28 05:07:39;;;;;;;;;;;;;;;6.36;72.98;93197.16;2076004;69;20110;-79
2021/05/28 05:10:05;;;;;;;;;;;;;;;6.20;73.36;93199.31;2075719;69;20415;-79
2021/05/28 05:12:30;;;;;;;;;;;;;;;6.34;72.57;93202.56;2075847;69;20051;-80
2021/05/28 05:14:56;;;;;;;;;;;;;;;6.40;73.00;93199.53;2075877;69;20135;-80
2021/05/28 05:17:21;;;;;;;;;;;;;;;6.49;72.38;93196.84;2075967;69;20084;-81
2021/05/28 05:19:47;;;;;;;;;;;;;;;6.49;72.60;93198.91;2075845;69;20064;-79
2021/05/28 05:22:12;;;;;;;;;;;;;;;6.60;72.38;93195.66;2075943;69;20422;-80
2021/05/28 05:24:38;;;;;;;;;;;;;;;6.35;72.91;93198.47;2075901;69;20059;-78
2021/05/28 05:27:03;;;;;;;;;;;;;;;6.53;72.03;93190.84;2072089;69;20060;-80
2021/05/28 05:29:29;;;;;;;;;;;;;;;6.65;72.19;93191.88;2075852;69;20505;-79
2021/05/28 05:31:54;;;;;;;;;;;;;;;6.63;72.39;93194.50;2075958;69;20055;-79
2021/05/28 05:34:20;;;;;;;;;;;;;;;6.69;71.63;93194.25;2075940;69;20574;-80
2021/05/28 05:36:46;;;;;;;;;;;;;;;6.67;71.41;93196.88;2075862;69;20140;-80
2021/05/28 05:39:12;;;;;;;;;;;;;;;6.67;71.95;93194.81;2075806;69;20139;-82
2021/05/28 05:41:38;;;;;;;;;;;;;;;6.69;71.85;93192.22;2075826;69;20424;-82
2021/05/28 05:44:04;;;;;;;;;;;;;;;6.81;70.43;93192.47;2075807;69;20047;-81
2021/05/28 05:46:29;;;;;;;;;;;;;;;6.83;69.92;93198.97;2075786;69;20052;-81
2021/05/28 05:48:55;;;;;;;;;;;;;;;6.97;69.15;93199.41;2075757;69;20054;-80
2021/05/28 05:51:20;;;;;;;;;;;;;;;7.03;69.36;93204.75;2075755;69;20041;-81
2021/05/28 05:53:46;;;;;;;;;;;;;;;6.86;69.78;93202.66;2075691;69;20044;-81
2021/05/28 05:56:11;;;;;;;;;;;;;;;6.83;70.09;93201.03;2075625;69;20056;-82
2021/05/28 05:58:40;;;;;;;;;;;;;;;6.72;70.55;93202.25;2072175;69;20054;-82
2021/05/28 06:01:06;;;;;;;;;;;;;;;6.87;70.31;93199.31;2075738;69;20063;-81
2021/05/28 06:03:31;;;;;;;;;;;;;;;6.63;70.79;93197.28;2075828;69;20397;-83
2021/05/28 06:05:57;;;;;;;;;;;;;;;6.77;71.31;93194.91;2075722;69;20529;-80
2021/05/28 06:08:23;;;;;;;;;;;;;;;6.95;71.12;93198.47;2075729;69;20445;-82
2021/05/28 06:10:48;;;;;;;;;;;;;;;6.95;71.28;93185.22;2075621;69;20048;-80
2021/05/28 06:13:14;;;;;;;;;;;;;;;7.01;71.93;93188.53;2075839;69;20140;-82
2021/05/28 06:15:39;;;;;;;;;;;;;;;7.03;71.35;93194.28;2075732;69;20175;-81
2021/05/28 06:18:05;;;;;;;;;;;;;;;7.26;70.67;93180.03;2075716;69;20412;-83
2021/05/28 06:20:30;;;;;;;;;;;;;;;7.35;71.32;93178.63;2072029;69;20057;-82
2021/05/28 06:22:56;;;;;;;;;;;;;;;7.54;69.90;93178.00;2075820;69;20048;-82
2021/05/28 06:25:21;;;;;;;;;;;;;;;7.63;70.19;93180.88;2075720;69;20057;-82
2021/05/28 06:27:47;;;;;;;;;;;;;;;7.81;70.22;93175.97;2075703;69;20419;-81
2021/05/28 06:30:13;;;;;;;;;;;;;;;8.01;70.70;93170.44;2075688;69;20044;-83
2021/05/28 06:32:38;;;;;;;;;;;;;;;8.11;70.39;93165.63;2075778;69;20136;-80
2021/05/28 06:35:04;;;;;;;;;;;;;;;8.33;69.98;93175.75;2075678;69;20594;-80
2021/05/28 06:37:30;;;;;;;;;;;;;;;8.47;70.06;93178.91;2075701;69;20085;-82
2021/05/28 06:39:55;;;;;;;;;;;;;;;8.59;69.50;93179.09;2075576;69;20044;-83
2021/05/28 06:42:20;;;;;;;;;;;;;;;8.75;69.78;93173.97;2075611;69;20047;-82
2021/05/28 06:44:46;;;;;;;;;;;;;;;8.80;68.73;93170.88;2075681;69;20044;-81
2021/05/28 06:47:11;;;;;;;;;;;;;;;8.94;68.65;93171.19;2071998;69;20045;-82
2021/05/28 06:49:37;;;;;;;;;;;;;;;9.21;68.54;93173.13;2075644;69;20048;-82
2021/05/28 06:52:03;;;;;;;;;;;;;;;9.33;65.71;93171.94;2075680;69;20205;-84
2021/05/28 06:54:29;;;;;;;;;;;;;;;9.42;66.87;93178.91;2075533;69;20068;-81
2021/05/28 06:56:55;;;;;;;;;;;;;;;9.55;66.41;93169.28;2075476;69;20064;-81
2021/05/28 06:59:21;;;;;;;;;;;;;;;9.60;66.51;93171.78;2075639;69;20044;-83
2021/05/28 07:01:47;;;;;;;;;;;;;;;9.76;66.53;93168.63;2075607;69;20517;-81
2021/05/28 07:04:12;;;;;;;;;;;;;;;9.80;67.32;93166.13;2075625;69;20518;-81
2021/05/28 07:06:38;;;;;;;;;;;;;;;10.03;64.88;93157.19;2076506;69;20056;-80
2021/05/28 07:09:04;;;;;;;;;;;;;;;10.21;66.02;93155.63;2075724;69;20101;-83
2021/05/28 07:11:29;;;;;;;;;;;;;;;10.36;65.29;93160.94;2075511;69;20455;-83
2021/05/28 07:13:55;;;;;;;;;;;;;;;10.48;64.86;93149.03;2071943;69;20052;-83
2021/05/28 07:16:20;;;;;;;;;;;;;;;10.63;65.58;93149.41;2075640;69;20488;-81
2021/05/28 07:18:47;;;;;;;;;;;;;;;10.72;63.69;93147.88;2075594;69;20232;-84
2021/05/28 07:21:12;;;;;;;;;;;;;;;10.85;65.25;93150.16;2075592;69;20041;-86
2021/05/28 07:23:38;;;;;;;;;;;;;;;10.91;63.33;93144.94;2075656;69;20110;-88
2021/05/28 07:26:03;;;;;;;;;;;;;;;10.93;60.20;93135.88;2075593;69;20048;-85
2021/05/28 07:28:29;;;;;;;;;;;;;;;11.24;61.24;93137.88;2077225;69;20045;-90
2021/05/28 07:30:54;;;;;;;;;;;;;;;11.37;62.57;93135.25;2075992;69;20064;-84
2021/05/28 07:33:20;;;;;;;;;;;;;;;11.33;59.16;93132.16;2076414;69;20497;-86
2021/05/28 07:35:46;;;;;;;;;;;;;;;11.36;58.48;93128.16;2072029;69;20580;-82
2021/05/28 07:38:11;;;;;;;;;;;;;;;11.39;56.31;93124.09;2075577;69;20128;-85
2021/05/28 07:40:38;;;;;;;;;;;;;;;11.52;55.74;93119.97;2071816;69;20056;-86
2021/05/28 07:43:03;;;;;;;;;;;;;;;11.47;55.29;93123.88;2075572;69;20500;-89
2021/05/28 07:45:30;;;;;;;;;;;;;;;12.01;55.87;93131.53;2075691;69;20397;-87
2021/05/28 07:47:56;;;;;;;;;;;;;;;12.29;54.92;93131.81;2075871;69;20485;-81
2021/05/28 07:50:22;;;;;;;;;;;;;;;12.92;53.10;93122.22;2075735;69;20060;-88
2021/05/28 07:52:47;;;;;;;;;;;;;;;13.23;51.47;93126.81;2076318;69;20393;-87
2021/05/28 07:55:12;;;;;;;;;;;;;;;13.25;51.12;93124.13;2076212;69;20064;-88
2021/05/28 07:57:38;;;;;;;;;;;;;;;13.44;50.87;93128.72;2076679;69;20502;-88
2021/05/28 08:00:05;;;;;;;;;;;;;;;13.94;51.46;93124.44;2076259;69;20051;-84
2021/05/28 08:02:30;;;;;;;;;;;;;;;14.09;50.94;93117.47;2076517;69;20493;-90
2021/05/28 08:04:55;;;;;;;;;;;;;;;15.07;50.39;93116.94;2076888;69;20056;-82
2021/05/28 08:07:21;;;;;;;;;;;;;;;14.78;46.67;93114.75;2077409;69;20045;-87
2021/05/28 08:09:48;;;;;;;;;;;;;;;15.07;46.37;93114.09;2076312;69;20059;-83
2021/05/28 08:12:14;;;;;;;;;;;;;;;15.08;43.49;93107.81;2076447;69;20044;-88
2021/05/28 08:14:39;;;;;;;;;;;;;;;15.68;42.73;93109.38;2080306;69;20052;-83
2021/05/28 08:17:05;;;;;;;;;;;;;;;15.88;43.68;93112.44;2079225;69;20044;-86
2021/05/28 08:19:30;;;;;;;;;;;;;;;16.06;41.71;93106.91;2076583;69;20138;-91
2021/05/28 08:21:56;;;;;;;;;;;;;;;16.20;42.30;93099.03;2076126;69;20101;-87
2021/05/28 08:24:21;;;;;;;;;;;;;;;15.98;41.10;93100.84;2076053;69;20143;-92
2021/05/28 08:26:47;;;;;;;;;;;;;;;16.55;43.40;93103.47;2076095;69;20052;-86
2021/05/28 08:29:12;;;;;;;;;;;;;;;17.68;40.16;93104.03;2076209;69;20095;-83
2021/05/28 08:31:38;;;;;;;;;;;;;;;18.00;38.52;93098.94;2072655;69;20110;-92
2021/05/28 08:34:03;;;;;;;;;;;;;;;17.76;39.33;93095.13;2079434;69;20052;-80
2021/05/28 08:36:29;;;;;;;;;;;;;;;17.97;37.22;93099.53;2078564;69;20540;-87
2021/05/28 08:38:54;;;;;;;;;;;;;;;19.52;36.41;93094.56;2076016;69;20068;-86
2021/05/28 08:41:22;;;;;;;;;;;;;;;19.26;37.06;93085.81;2075922;69;20125;-86
2021/05/28 08:43:47;;;;;;;;;;;;;;;19.29;35.66;93089.50;2076045;69;20091;-89
2021/05/28 08:46:16;;;;;;;;;;;;;;;20.33;35.66;93092.88;2075977;69;20511;-86
2021/05/28 08:48:41;;;;;;;;;;;;;;;20.58;36.25;93082.22;2076133;69;20087;-86
2021/05/28 08:51:07;;;;;;;;;;;;;;;20.05;32.40;93084.16;2076213;69;20045;-84
2021/05/28 08:53:33;;;;;;;;;;;;;;;21.69;32.29;93086.72;2076003;69;20055;-87
2021/05/28 08:55:59;;;;;;;;;;;;;;;18.61;34.67;93077.03;2072146;69;20044;-89
2021/05/28 08:58:26;;;;;;;;;;;;;;;21.11;33.63;93072.28;2075980;69;20217;-92
2021/05/28 09:00:51;;;;;;;;;;;;;;;21.82;33.31;93077.03;2075869;69;20052;-84
2021/05/28 09:03:36;;;;;;;;;;;;;;;21.27;31.92;93064.13;2076029;69;20051;-90
2021/05/28 09:06:21;;;;;;;;;;;;;;;20.15;32.92;93060.88;2076014;69;20052;-86
2021/05/28 09:08:47;;;;;;;;;;;;;;;22.40;31.89;93068.38;2076014;69;20076;-89
2021/05/28 09:11:18;;;;;;;;;;;;;;;20.36;31.83;93057.25;2075834;69;20051;-81
2021/05/28 09:13:44;;;;;;;;;;;;;;;22.52;32.32;93067.94;2075983;69;20503;-91
2021/05/28 09:16:10;;;;;;;;;;;;;;;22.00;30.02;93065.31;2072270;69;20048;-86
2021/05/28 09:18:44;;;;;;;;;;;;;;;22.02;29.00;93059.59;2076082;69;20477;-88
2021/05/28 09:21:09;;;;;;;;;;;;;;;23.10;30.28;93053.41;2075865;69;20063;-89
2021/05/28 09:23:35;;;;;;;;;;;;;;;23.47;30.05;93057.69;2075942;69;20578;-89
2021/05/28 09:26:03;;;;;;;;;;;;;;;22.04;29.38;93048.19;2075776;69;20412;-87
2021/05/28 09:28:29;;;;;;;;;;;;;;;23.32;29.26;93050.97;2075992;69;20048;-91
2021/05/28 09:30:56;;;;;;;;;;;;;;;22.62;28.74;93036.59;2072273;69;20176;-82
2021/05/28 09:33:23;;;;;;;;;;;;;;;24.69;28.50;93035.22;2075923;69;20048;-86
2021/05/28 09:35:50;;;;;;;;;;;;;;;24.17;28.86;93030.13;2076276;69;20048;-94
2021/05/28 09:38:19;;;;;;;;;;;;;;;22.70;28.86;93031.03;2076006;69;20139;-83
2021/05/28 09:40:46;;;;;;;;;;;;;;;24.44;28.62;93019.78;2075722;69;20072;-84
2021/05/28 09:43:14;;;;;;;;;;;;;;;23.03;29.19;93020.97;2075901;69;20084;-84
2021/05/28 09:45:40;;;;;;;;;;;;;;;23.86;27.79;93020.31;2075879;69;20077;-87
2021/05/28 09:48:15;;;;;;;;;;;;;;;23.72;29.51;93015.03;2075868;69;20051;-84
2021/05/28 09:50:44;;;;;;;;;;;;;;;25.69;26.71;93014.06;2072565;69;20088;-83
2021/05/28 09:53:24;;;;;;;;;;;;;;;23.11;27.59;93016.81;2071568;69;20080;-86
2021/05/28 09:55:51;;;;;;;;;;;;;;;26.46;26.45;93013.25;2071227;69;20059;-80
2021/05/28 09:58:19;;;;;;;;;;;;;;;25.51;25.49;93011.72;2072024;69;20049;-82
2021/05/28 10:01:09;;;;;;;;;;;;;;;26.12;25.58;92997.16;2073070;69;20045;-79
2021/05/28 10:03:36;;;;;;;;;;;;;;;24.78;24.73;93002.94;2073599;69;20080;-82
2021/05/28 10:06:02;;;;;;;;;;;;;;;24.71;26.01;92997.84;2072576;69;20110;-88
2021/05/28 10:08:28;;;;;;;;;;;;;;;25.76;25.69;92995.41;2072459;69;20052;-80
2021/05/28 10:10:55;;;;;;;;;;;;;;;26.58;24.48;92993.84;2072346;69;20069;-81
2021/05/28 10:13:23;;;;;;;;;;;;;;;28.74;22.89;92998.59;2072203;69;20048;-81
2021/05/28 10:15:49;;;;;;;;;;;;;;;24.48;26.55;92980.28;2072312;69;20056;-82
2021/05/28 10:18:15;;;;;;;;;;;;;;;27.95;23.92;92984.88;2072914;69;20176;-84
2021/05/28 10:20:42;;;;;;;;;;;;;;;28.80;23.76;92984.78;2072334;69;20045;-83
2021/05/28 10:23:09;;;;;;;;;;;;;;;29.50;22.52;92982.31;2072369;69;20118;-81
2021/05/28 10:25:35;;;;;;;;;;;;;;;28.75;22.85;92980.47;2072201;69;20047;-88
2021/05/28 10:28:02;;;;;;;;;;;;;;;30.44;20.82;92975.16;2072341;69;20055;-85
2021/05/28 10:30:38;;;;;;;;;;;;;;;32.20;19.82;92985.31;2072475;69;20405;-82
2021/05/28 10:33:36;;;;;;;;;;;;;;;33.03;17.96;92978.03;2068769;69;20048;-84
2021/05/28 10:36:03;;;;;;;;;;;;;;;34.55;17.15;92969.63;2058629;69;20050;-85
2021/05/28 10:38:43;;;;;;;;;;;;;;;36.16;16.49;92979.00;2059203;69;20108;-88
2021/05/28 10:41:08;;;;;;;;;;;;;;;33.64;17.58;92967.34;2055232;69;20053;-84
2021/05/28 10:43:38;;;;;;;;;;;;;;;35.54;15.48;92966.19;2058204;69;20073;-83
2021/05/28 10:46:08;;;;;;;;;;;;;;;36.40;15.70;92967.19;2058464;69;20066;-82
2021/05/28 10:48:43;;;;;;;;;;;;;;;38.50;14.95;92967.66;2058253;69;20064;-81
2021/05/28 10:51:13;;;;;;;;;;;;;;;34.33;16.94;92945.28;2058675;69;20057;-83
2021/05/28 10:53:59;;;;;;;;;;;;;;;38.62;14.38;92954.66;2058869;69;20141;-82
2021/05/28 10:56:26;;;;;;;;;;;;;;;33.46;15.91;92944.41;2058023;69;20501;-88
2021/05/28 10:58:55;;;;;;;;;;;;;;;35.04;14.64;92936.16;2058247;69;20057;-82
2021/05/28 11:04:05;;;;;;;;;;;;;;;35.36;16.26;92932.28;2058115;69;20493;-89
2021/05/28 11:06:31;;;;;;;;;;;;;;;39.62;12.76;92933.34;2058246;69;20054;-89
2021/05/28 11:09:05;;;;;;;;;;;;;;;39.00;13.79;92940.56;2058166;69;20203;-84
2021/05/28 11:11:37;;;;;;;;;;;;;;;34.07;15.17;92920.38;2064505;69;20087;-83
2021/05/28 11:14:05;;;;;;;;;;;;;;;38.61;13.97;92933.34;2072299;69;20141;-87
2021/05/28 11:16:49;;;;;;;;;;;;;;;39.88;11.81;92930.75;2072337;69;20128;-87
2021/05/28 11:19:21;;;;;;;;;;;;;;;42.34;12.17;92934.38;2068675;69;20048;-89
2021/05/28 11:22:08;;;;;;;;;;;;;;;37.36;13.24;92916.94;2072350;69;20111;-91
2021/05/28 11:24:41;;;;;;;;;;;;;;;39.77;12.40;92920.94;2072376;69;20048;-88
2021/05/28 11:27:15;;;;;;;;;;;;;;;36.31;13.66;92906.69;2076111;69;20053;-84
2021/05/28 11:29:41;;;;;;;;;;;;;;;34.82;14.05;92890.66;2075286;69;20494;-91
2021/05/28 11:32:25;;;;;;;;;;;;;;;37.67;13.07;92895.25;2072476;69;20056;-85
2021/05/28 11:35:10;;;;;;;;;;;;;;;35.13;12.87;92887.63;2072335;69;20044;-86
2021/05/28 11:37:39;;;;;;;;;;;;;;;37.11;11.94;92887.78;2072080;69;20071;-87
2021/05/28 11:40:11;;;;;;;;;;;;;;;40.09;11.71;92886.28;2071910;69;20434;-88
2021/05/28 11:42:36;;;;;;;;;;;;;;;40.92;12.00;92874.78;2072096;69;20118;-86
2021/05/28 11:45:02;;;;;;;;;;;;;;;39.70;12.64;92869.72;2072205;69;20420;-85
2021/05/28 11:47:32;;;;;;;;;;;;;;;37.44;13.27;92868.97;2072191;69;20072;-88
2021/05/28 11:49:57;;;;;;;;;;;;;;;41.56;11.38;92869.91;2072229;69;20076;-82
2021/05/28 11:52:23;;;;;;;;;;;;;;;41.53;12.10;92872.28;2072037;69;20120;-85
2021/05/28 11:54:49;;;;;;;;;;;;;;;42.53;10.84;92871.88;2072001;69;20167;-84
2021/05/28 11:57:17;;;;;;;;;;;;;;;42.45;10.25;92872.34;2072432;69;20142;-85
2021/05/28 11:59:48;;;;;;;;;;;;;;;40.16;11.18;92848.38;2072324;69;20041;-86
2021/05/28 12:02:30;;;;;;;;;;;;;;;40.41;11.88;92860.38;2072109;69;20162;-86
2021/05/28 12:04:56;;;;;;;;;;;;;;;40.25;11.29;92853.06;2072377;69;20139;-85
2021/05/28 12:07:21;;;;;;;;;;;;;;;42.19;10.09;92857.53;2072129;69;20121;-83
2021/05/28 12:10:00;;;;;;;;;;;;;;;40.58;10.90;92845.53;2071854;69;20059;-81
2021/05/28 12:12:26;;;;;;;;;;;;;;;39.87;10.94;92840.91;2071935;69;20075;-83
2021/05/28 12:15:04;;;;;;;;;;;;;;;42.60;10.07;92840.38;2071979;69;20049;-86
2021/05/28 12:17:33;;;;;;;;;;;;;;;37.38;12.16;92839.84;2071901;69;20052;-86
2021/05/28 12:20:11;;;;;;;;;;;;;;;37.77;11.50;92833.16;2071972;69;20057;-88
2021/05/28 12:22:54;;;;;;;;;;;;;;;36.07;11.68;92826.91;2072040;69;20117;-85
2021/05/28 12:25:19;;;;;;;;;;;;;;;39.23;10.17;92831.38;2072052;69;20095;-88
2021/05/28 12:27:45;;;;;;;;;;;;;;;43.27;9.05;92838.63;2072120;69;20104;-85
2021/05/28 12:30:13;;;;;;;;;;;;;;;43.48;8.65;92841.03;2071969;69;20084;-87
2021/05/28 12:32:39;;;;;;;;;;;;;;;42.69;8.99;92829.50;2072109;69;20045;-88
2021/05/28 12:35:05;;;;;;;;;;;;;;;41.67;9.80;92817.59;2072039;69;20067;-87
2021/05/28 12:37:31;;;;;;;;;;;;;;;38.48;11.00;92802.34;2072286;69;20048;-89
2021/05/28 12:40:07;;;;;;;;;;;;;;;40.68;10.61;92803.00;2072583;69;20051;-87
2021/05/28 12:42:33;;;;;;;;;;;;;;;38.25;11.40;92794.47;2072540;69;20045;-88
2021/05/28 12:45:13;;;;;;;;;;;;;;;35.69;12.82;92793.00;2072431;69;20068;-90
2021/05/28 12:47:43;;;;;;;;;;;;;;;34.25;13.77;92787.72;2072910;69;20084;-86
2021/05/28 12:50:23;;;;;;;;;;;;;;;36.39;14.92;92792.81;2073128;69;20048;-86
2021/05/28 12:52:52;;;;;;;;;;;;;;;32.66;15.75;92776.19;2073229;69;20071;-87
2021/05/28 12:55:25;;;;;;;;;;;;;;;29.55;15.40;92774.25;2073266;69;20052;-87